createdAt,value
2018-12-24T00:03:46.791Z,87.40
2018-12-24T00:09:05.956Z,87.80
2018-12-24T00:14:17.812Z,87.30
2018-12-24T00:19:30.153Z,87.90
2018-12-24T00:24:42.161Z,88.50
2018-12-24T00:29:53.807Z,87.70
2018-12-24T00:35:06.264Z,88.70
2018-12-24T00:40:17.700Z,87.90
2018-12-24T00:45:30.104Z,87.00
2018-12-24T00:50:41.935Z,89.00
2018-12-24T00:55:53.536Z,89.40
2018-12-24T01:01:05.459Z,89.70
2018-12-24T01:06:17.283Z,88.90
2018-12-24T01:11:29.263Z,88.50
2018-12-24T01:16:40.772Z,88.10
2018-12-24T01:21:52.460Z,88.80
2018-12-24T01:27:04.310Z,88.20
2018-12-24T01:32:15.871Z,86.60
2018-12-24T01:37:27.096Z,86.70
2018-12-24T01:42:38.417Z,86.30
2018-12-24T01:47:49.730Z,87.30
2018-12-24T01:53:01.639Z,89.50
2018-12-24T01:58:13.270Z,88.20
2018-12-24T02:03:25.060Z,88.30
2018-12-24T02:08:36.972Z,88.30
2018-12-24T02:13:48.860Z,86.70
2018-12-24T02:19:00.073Z,87.10
2018-12-24T02:24:12.048Z,88.10
2018-12-24T02:29:23.607Z,87.90
2018-12-24T02:34:35.672Z,88.70
2018-12-24T02:39:47.431Z,87.00
2018-12-24T02:44:59.219Z,87.70
2018-12-24T02:50:10.882Z,89.50
2018-12-24T02:55:22.845Z,87.50
2018-12-24T03:00:34.252Z,86.80
2018-12-24T03:05:45.702Z,87.60
2018-12-24T03:10:57.877Z,88.00
2018-12-24T03:16:09.968Z,88.00
2018-12-24T03:21:21.356Z,88.50
2018-12-24T03:26:33.204Z,87.40
2018-12-24T03:31:45.314Z,86.80
2018-12-24T03:36:57.367Z,87.00
2018-12-24T03:42:09.308Z,87.60
2018-12-24T03:47:21.280Z,87.30
2018-12-24T03:52:32.567Z,88.30
2018-12-24T03:57:44.408Z,86.60
2018-12-24T04:02:56.475Z,85.70
2018-12-24T04:08:08.315Z,85.60
2018-12-24T04:13:22.560Z,86.30
2018-12-24T04:18:34.248Z,87.50
2018-12-24T04:23:45.958Z,87.30
2018-12-24T04:28:58.081Z,85.80
2018-12-24T04:34:10.001Z,86.20
2018-12-24T04:39:22.325Z,85.80
2018-12-24T04:44:34.525Z,87.30
2018-12-24T04:49:47.419Z,85.20
2018-12-24T04:54:59.084Z,85.00
2018-12-24T05:00:10.904Z,85.50
2018-12-24T05:05:22.784Z,84.10
2018-12-24T05:10:34.855Z,84.40
2018-12-24T05:15:46.445Z,84.40
2018-12-24T05:20:58.747Z,84.20
2018-12-24T05:26:10.080Z,86.30
2018-12-24T05:31:22.886Z,86.80
2018-12-24T05:36:35.040Z,85.00
2018-12-24T05:41:47.280Z,86.40
2018-12-24T05:46:58.527Z,83.20
2018-12-24T05:52:09.708Z,84.60
2018-12-24T05:57:21.692Z,84.00
2018-12-24T06:02:33.376Z,84.70
2018-12-24T06:07:45.227Z,83.80
2018-12-24T06:12:56.568Z,84.70
2018-12-24T06:17:57.701Z,84.20
2018-12-24T06:23:22.595Z,83.40
2018-12-24T06:28:34.408Z,82.80
2018-12-24T06:33:46.235Z,82.70
2018-12-24T06:38:57.939Z,82.20
2018-12-24T06:43:57.637Z,84.00
2018-12-24T06:49:08.915Z,84.10
2018-12-24T06:54:20.647Z,84.20
2018-12-24T06:59:32.575Z,82.40
2018-12-24T07:04:44.556Z,83.20
2018-12-24T07:09:56.239Z,82.90
2018-12-24T07:15:08.136Z,82.70
2018-12-24T07:20:20.184Z,84.60
2018-12-24T07:25:31.492Z,83.40
2018-12-24T07:30:31.151Z,81.70
2018-12-24T07:35:42.936Z,84.20
2018-12-24T07:40:55.092Z,85.60
2018-12-24T07:46:06.864Z,86.40
2018-12-24T07:51:18.748Z,86.40
2018-12-24T07:56:30.727Z,86.20
2018-12-24T08:01:42.623Z,86.00
2018-12-24T08:06:54.203Z,85.30
2018-12-24T08:12:05.791Z,85.00
2018-12-24T08:17:17.422Z,84.90
2018-12-24T08:22:28.721Z,84.30
2018-12-24T08:27:28.347Z,84.40
2018-12-24T08:32:47.277Z,84.10
2018-12-24T08:37:59.385Z,83.70
2018-12-24T08:43:11.392Z,83.80
2018-12-24T08:48:22.593Z,84.00
2018-12-24T08:53:34.672Z,83.80
2018-12-24T08:58:46.859Z,84.10
2018-12-24T09:03:58.720Z,83.70
2018-12-24T09:09:10.065Z,83.90
2018-12-24T09:14:21.789Z,84.10
2018-12-24T09:19:33.750Z,84.10
2018-12-24T09:24:45.359Z,84.20
2018-12-24T09:29:56.681Z,84.50
2018-12-24T09:35:08.664Z,84.20
2018-12-24T09:40:20.164Z,84.70
2018-12-24T09:45:31.581Z,85.00
2018-12-24T09:50:42.975Z,84.70
2018-12-24T09:55:54.955Z,84.30
2018-12-24T10:01:06.944Z,85.00
2018-12-24T10:06:19.205Z,85.30
2018-12-24T10:11:31.008Z,84.80
2018-12-24T10:16:42.477Z,85.20
2018-12-24T10:49:31.322Z,84.80
2018-12-24T11:11:13.392Z,85.80
2018-12-24T11:16:25.582Z,85.10
2018-12-24T11:21:37.239Z,86.00
2018-12-24T11:26:49.127Z,86.10
2018-12-24T11:32:01.464Z,85.90
2018-12-24T11:37:13.348Z,85.50
2018-12-24T11:42:26.138Z,84.80
2018-12-24T11:47:25.879Z,85.00
2018-12-24T11:52:45.029Z,84.30
2018-12-24T11:57:56.192Z,84.00
2018-12-24T12:03:08.208Z,83.20
2018-12-24T12:08:20.347Z,83.30
2018-12-24T12:13:32.443Z,82.90
2018-12-24T12:18:44.316Z,83.00
2018-12-24T12:23:56.177Z,82.90
2018-12-24T12:28:56.449Z,83.10
2018-12-24T12:33:56.169Z,82.60
2018-12-24T12:39:08.456Z,82.70
2018-12-24T12:44:20.379Z,82.30
2018-12-24T12:49:32.653Z,81.70
2018-12-24T12:54:44.458Z,82.40
2018-12-24T12:59:44.236Z,81.70
2018-12-24T13:05:03.160Z,81.80
2018-12-24T13:10:04.568Z,81.50
2018-12-24T13:15:22.427Z,81.30
2018-12-24T13:20:34.322Z,80.60
2018-12-24T13:25:44.300Z,80.30
2018-12-24T13:31:03.537Z,80.40
2018-12-24T13:36:15.457Z,81.00
2018-12-24T13:41:26.701Z,81.50
2018-12-24T13:46:38.379Z,81.30
2018-12-24T13:51:49.875Z,80.70
2018-12-24T13:57:01.635Z,81.70
2018-12-24T14:02:13.674Z,81.20
2018-12-24T14:07:25.081Z,81.60
2018-12-24T14:12:36.992Z,81.20
2018-12-24T14:17:48.679Z,80.80
2018-12-24T14:23:00.124Z,80.80
2018-12-24T14:28:12.211Z,80.60
2018-12-24T14:33:24.955Z,81.30
2018-12-24T14:38:37.247Z,80.70
2018-12-24T14:43:48.907Z,80.20
2018-12-24T14:49:00.837Z,80.20
2018-12-24T14:54:12.360Z,80.40
2018-12-24T14:59:12.035Z,80.90
2018-12-24T15:04:23.995Z,80.10
2018-12-24T15:09:36.140Z,79.40
2018-12-24T15:14:48.048Z,79.30
2018-12-24T15:19:59.330Z,80.40
2018-12-24T15:25:11.172Z,80.40
2018-12-24T15:30:22.796Z,80.40
2018-12-24T15:35:34.572Z,79.80
2018-12-24T15:40:46.295Z,80.30
2018-12-24T15:45:45.971Z,79.90
2018-12-24T15:50:45.735Z,79.70
2018-12-24T15:55:45.400Z,79.60
2018-12-24T16:01:04.320Z,79.90
2018-12-24T16:06:03.974Z,80.00
2018-12-24T16:11:03.717Z,80.20
2018-12-24T16:16:15.614Z,80.20
2018-12-24T16:21:27.649Z,80.20
2018-12-24T16:26:39.208Z,80.40
2018-12-24T16:31:38.892Z,81.10
2018-12-24T16:36:57.797Z,80.80
2018-12-24T16:42:09.011Z,80.80
2018-12-24T16:47:19.003Z,80.30
2018-12-24T16:52:30.436Z,80.60
2018-12-24T16:57:30.139Z,80.80
2018-12-24T17:02:49.305Z,81.00
2018-12-24T17:08:01.036Z,80.20
2018-12-24T17:13:13.048Z,80.80
2018-12-24T17:18:24.775Z,80.40
2018-12-24T17:23:36.484Z,81.40
2018-12-24T17:28:47.772Z,80.80
2018-12-24T17:33:59.072Z,80.40
2018-12-24T17:39:12.531Z,81.20
2018-12-24T17:44:24.524Z,82.30
2018-12-24T17:49:36.264Z,81.80
2018-12-24T17:54:48.067Z,82.90
2018-12-24T17:59:59.987Z,82.40
2018-12-24T18:05:11.901Z,82.40
2018-12-24T18:10:23.616Z,82.30
2018-12-24T18:15:35.123Z,82.50
2018-12-24T18:20:46.647Z,83.20
2018-12-24T18:25:58.086Z,83.20
2018-12-24T18:31:09.326Z,84.10
2018-12-24T18:36:21.256Z,83.70
2018-12-24T18:41:33.164Z,82.90
2018-12-24T18:46:43.220Z,83.00
2018-12-24T18:52:02.132Z,83.70
2018-12-24T18:57:13.792Z,83.80
2018-12-24T19:02:25.697Z,84.40
2018-12-24T19:07:25.343Z,84.20
2018-12-24T19:12:44.259Z,84.80
2018-12-24T19:17:56.179Z,84.50
2018-12-24T19:23:07.985Z,84.80
2018-12-24T19:28:22.675Z,84.80
2018-12-24T19:33:34.855Z,85.30
2018-12-24T19:38:46.533Z,85.00
2018-12-24T19:43:57.935Z,84.50
2018-12-24T19:49:10.280Z,85.80
2018-12-24T19:54:21.948Z,84.90
2018-12-24T19:59:33.371Z,85.10
2018-12-24T20:04:44.800Z,85.90
2018-12-24T20:09:56.307Z,85.80
2018-12-24T20:15:08.495Z,85.80
2018-12-24T20:20:20.901Z,86.30
2018-12-24T20:25:32.954Z,86.00
2018-12-24T20:30:44.880Z,85.80
2018-12-24T20:35:56.764Z,86.10
2018-12-24T20:41:09.068Z,86.00
2018-12-24T20:46:20.460Z,86.00
2018-12-24T20:51:32.613Z,86.20
2018-12-24T20:56:44.684Z,85.80
2018-12-24T21:01:56.003Z,85.80
2018-12-24T21:07:07.951Z,86.00
2018-12-24T21:12:20.331Z,86.20
2018-12-24T21:17:32.375Z,86.60
2018-12-24T21:22:44.576Z,86.80
2018-12-24T21:27:56.756Z,86.70
2018-12-24T21:33:09.160Z,87.00
2018-12-24T21:38:20.932Z,87.70
2018-12-24T21:43:32.995Z,87.70
2018-12-24T21:48:44.668Z,88.20
2018-12-24T21:59:31.218Z,87.90
2018-12-24T22:10:12.444Z,88.70
2018-12-24T22:26:16.224Z,89.20
2018-12-24T22:31:16.498Z,88.90
2018-12-24T22:36:35.401Z,88.50
2018-12-24T22:41:46.905Z,89.00
2018-12-24T22:46:58.936Z,89.70
2018-12-24T22:52:10.972Z,88.30
2018-12-24T22:57:22.788Z,88.30
2018-12-24T23:02:34.637Z,88.60
2018-12-24T23:07:46.998Z,88.10
2018-12-24T23:12:58.708Z,88.10
2018-12-24T23:18:10.591Z,88.90
2018-12-24T23:23:22.739Z,87.70
2018-12-24T23:28:34.699Z,87.70
2018-12-24T23:33:46.747Z,88.90
2018-12-24T23:38:58.324Z,88.60
2018-12-24T23:44:09.594Z,88.30
2018-12-24T23:49:09.304Z,88.00
2018-12-24T23:54:28.188Z,88.10
2018-12-24T23:59:40.088Z,87.60
